Culym, Russia
Current Conditions -  °F | °C
As of 11:30 AM on Monday 20 Oct 2014 (Local Time) from UNNT Reporting Station
Clear Clear  
Wind Chill: 38°   Ceiling: Unl
Heat Index: 45°   Visibility: 6mi
Dew Point: 34°   Wind: 13mph
Humidity: 66%   Direction: 170°S
Pressure: 29.62"   Gusts: NA
Location:  55.1°N, 80.97°E
Report Text: UNNT 200430Z 17006MPS CAVOK 07/01 Q1003 25090070 16090070 NOSIGRMK QFE742/0990
Loading
Personal Weather Stations






























Interactive Weather Map
Tropical Storm Tracking
New forecast layout! Learn more

10-Day Weather Forecast

Advertisements
Track Severe Weather on mobile